메인 페이지
METAR-TAF:

METAR-TAF

공항 :

충칭 장베이 국제공항

충칭, 중국

위도: 29-31N, 경도: 106-29E, 고도: 351m

현재 날씨관측

예보는 46분 전, 21:00시(UTC)에 발표되었습니다.
동북동4kt
온도 16°C
습도 88%
기압 1016 hPa
시정 10km 이상
고도 1600ft 상공 구름 보통

METAR: ZUCK 222100Z 06002MPS 9999 SCT016 16/14 Q1016 NOSIG

시각: 05:46 (21:46 UTC)

예보

예보는 6 시간 45분 전, 15:01시(UTC)에 발표되었습니다.
예보 대상 시간: 22일 18시부터 23일 18시까지 (UTC)
남남동6kt
시정: 5000m
고도 600ft 상공 구름 조금
고도 2000ft 상공 구름 보통
고도 4000ft 상공 흐림
박무

TAF: ZUCK 221501Z 2218/2318 15003MPS 5000 BR FEW006 SCT020 OVC040 TX23/2307Z TN14/2221Z

4,000개 이상의 공항 관측 자료 및 예보 (METAR 및 TAF 보고).

지도상에서 검색 가능한 기상관측소가 노란 점과 빨간 점으로 표시되어 있습니다.

기상관측소 명을 보려면 표시 위로 마우스를 이동하세요.

날씨 관측과 예보를 보려면 클릭하세요.

지도 변경 : 확대하려면 엑스 표시가 있는 녹색 버튼, 축소하려면 빼기 표시가 있는 녹색 버튼, 다음 페이지의 지도를 보려면 녹색 화살표를 클릭하세요.


METAR-TAF: